sensor_id;sensor_type;location;lat;lon;timestamp;P1;P2;P0
72031;PMS5003;49185;42.320;23.198;2023-12-20T00:01:18;2500.00;2500.00;2500.00
72031;PMS5003;49185;42.320;23.198;2023-12-20T00:03:43;2509.00;2509.00;2509.00
72031;PMS5003;49185;42.320;23.198;2023-12-20T00:06:09;2512.33;2512.33;2512.33
72031;PMS5003;49185;42.320;23.198;2023-12-20T00:08:35;2517.00;2517.00;2517.00
72031;PMS5003;49185;42.320;23.198;2023-12-20T00:11:01;2517.00;2517.00;2517.00
72031;PMS5003;49185;42.320;23.198;2023-12-20T00:13:27;2520.00;2520.00;2520.00
72031;PMS5003;49185;42.320;23.198;2023-12-20T00:15:52;2520.00;2520.00;2520.00
72031;PMS5003;49185;42.320;23.198;2023-12-20T00:18:18;2516.33;2516.33;2516.33
72031;PMS5003;49185;42.320;23.198;2023-12-20T00:20:44;2512.00;2512.00;2512.00
72031;PMS5003;49185;42.320;23.198;2023-12-20T00:23:09;2515.33;2515.33;2515.33
72031;PMS5003;49185;42.320;23.198;2023-12-20T00:25:35;2509.00;2509.00;2509.00
72031;PMS5003;49185;42.320;23.198;2023-12-20T00:28:01;2507.50;2507.50;2507.50
72031;PMS5003;49185;42.320;23.198;2023-12-20T00:30:26;2517.00;2517.00;2517.00
72031;PMS5003;49185;42.320;23.198;2023-12-20T00:32:52;2512.33;2512.33;2512.33
72031;PMS5003;49185;42.320;23.198;2023-12-20T00:35:18;2507.00;2507.00;2507.00
72031;PMS5003;49185;42.320;23.198;2023-12-20T00:37:44;2507.50;2507.50;2507.50
72031;PMS5003;49185;42.320;23.198;2023-12-20T00:40:09;2509.00;2509.00;2509.00
72031;PMS5003;49185;42.320;23.198;2023-12-20T00:42:35;2510.50;2510.50;2510.50
72031;PMS5003;49185;42.320;23.198;2023-12-20T00:45:01;2500.00;2500.00;2500.00
72031;PMS5003;49185;42.320;23.198;2023-12-20T00:47:27;2501.50;2501.50;2501.50
72031;PMS5003;49185;42.320;23.198;2023-12-20T00:49:52;2510.50;2510.50;2510.50
72031;PMS5003;49185;42.320;23.198;2023-12-20T00:52:18;2497.00;2497.00;2497.00
72031;PMS5003;49185;42.320;23.198;2023-12-20T00:54:43;2494.00;2494.00;2494.00
72031;PMS5003;49185;42.320;23.198;2023-12-20T00:57:09;2500.00;2500.00;2500.00
72031;PMS5003;49185;42.320;23.198;2023-12-20T00:59:34;2494.00;2494.00;2494.00
72031;PMS5003;49185;42.320;23.198;2023-12-20T01:02:00;2489.00;2489.00;2489.00
72031;PMS5003;49185;42.320;23.198;2023-12-20T01:04:26;2486.50;2486.50;2486.50
72031;PMS5003;49185;42.320;23.198;2023-12-20T01:06:51;2485.00;2485.00;2485.00
72031;PMS5003;49185;42.320;23.198;2023-12-20T01:09:17;2498.50;2498.50;2498.50
72031;PMS5003;49185;42.320;23.198;2023-12-20T01:11:42;2485.00;2485.00;2485.00
72031;PMS5003;49185;42.320;23.198;2023-12-20T01:14:10;2483.00;2483.00;2483.00
72031;PMS5003;49185;42.320;23.198;2023-12-20T01:16:35;2492.50;2492.50;2492.50
72031;PMS5003;49185;42.320;23.198;2023-12-20T01:19:01;2483.00;2483.00;2483.00
72031;PMS5003;49185;42.320;23.198;2023-12-20T01:21:26;2494.00;2494.00;2494.00
72031;PMS5003;49185;42.320;23.198;2023-12-20T01:23:51;2485.00;2485.00;2485.00
72031;PMS5003;49185;42.320;23.198;2023-12-20T01:26:17;2494.00;2494.00;2494.00
72031;PMS5003;49185;42.320;23.198;2023-12-20T01:28:42;2492.00;2492.00;2492.00
72031;PMS5003;49185;42.320;23.198;2023-12-20T01:31:08;2494.00;2494.00;2494.00
72031;PMS5003;49185;42.320;23.198;2023-12-20T01:33:34;2497.00;2497.00;2497.00
72031;PMS5003;49185;42.320;23.198;2023-12-20T01:35:59;2492.00;2492.00;2492.00
72031;PMS5003;49185;42.320;23.198;2023-12-20T01:38:25;2492.00;2492.00;2492.00
72031;PMS5003;49185;42.320;23.198;2023-12-20T01:40:50;2492.00;2492.00;2492.00
72031;PMS5003;49185;42.320;23.198;2023-12-20T01:43:15;2479.67;2479.67;2479.67
72031;PMS5003;49185;42.320;23.198;2023-12-20T01:45:41;2482.50;2482.50;2482.50
72031;PMS5003;49185;42.320;23.198;2023-12-20T01:48:07;2479.50;2479.50;2479.50
72031;PMS5003;49185;42.320;23.198;2023-12-20T01:50:35;2479.50;2479.50;2479.50
72031;PMS5003;49185;42.320;23.198;2023-12-20T01:53:01;2486.50;2486.50;2486.50
72031;PMS5003;49185;42.320;23.198;2023-12-20T01:55:29;2486.50;2486.50;2486.50
72031;PMS5003;49185;42.320;23.198;2023-12-20T01:57:57;2481.00;2481.00;2481.00
72031;PMS5003;49185;42.320;23.198;2023-12-20T02:00:24;2481.00;2481.00;2481.00
72031;PMS5003;49185;42.320;23.198;2023-12-20T02:02:53;2482.50;2482.50;2482.50
72031;PMS5003;49185;42.320;23.198;2023-12-20T02:05:19;2488.00;2488.00;2488.00
72031;PMS5003;49185;42.320;23.198;2023-12-20T02:07:45;2489.50;2489.50;2489.50
72031;PMS5003;49185;42.320;23.198;2023-12-20T02:10:11;2476.67;2476.67;2476.67
72031;PMS5003;49185;42.320;23.198;2023-12-20T02:12:36;2480.67;2480.67;2480.67
72031;PMS5003;49185;42.320;23.198;2023-12-20T02:15:02;2470.67;2470.67;2470.67
72031;PMS5003;49185;42.320;23.198;2023-12-20T02:17:28;2478.00;2478.00;2478.00
72031;PMS5003;49185;42.320;23.198;2023-12-20T02:19:54;2467.50;2467.50;2467.50
72031;PMS5003;49185;42.320;23.198;2023-12-20T02:22:20;2474.67;2474.67;2474.67
72031;PMS5003;49185;42.320;23.198;2023-12-20T02:24:45;2476.67;2476.67;2476.67
72031;PMS5003;49185;42.320;23.198;2023-12-20T02:27:11;2468.67;2468.67;2468.67
72031;PMS5003;49185;42.320;23.198;2023-12-20T02:29:37;2478.00;2478.00;2478.00
72031;PMS5003;49185;42.320;23.198;2023-12-20T02:32:02;2470.67;2470.67;2470.67
72031;PMS5003;49185;42.320;23.198;2023-12-20T02:34:28;2470.50;2470.50;2470.50
72031;PMS5003;49185;42.320;23.198;2023-12-20T02:36:54;2482.50;2482.50;2482.50
72031;PMS5003;49185;42.320;23.198;2023-12-20T02:39:20;2474.67;2474.67;2474.67
72031;PMS5003;49185;42.320;23.198;2023-12-20T02:41:46;2479.50;2479.50;2479.50
72031;PMS5003;49185;42.320;23.198;2023-12-20T02:44:11;2482.50;2482.50;2482.50
72031;PMS5003;49185;42.320;23.198;2023-12-20T02:46:37;2477.67;2477.67;2477.67
72031;PMS5003;49185;42.320;23.198;2023-12-20T02:49:02;2482.00;2482.00;2482.00
72031;PMS5003;49185;42.320;23.198;2023-12-20T02:51:28;2479.67;2479.67;2479.67
72031;PMS5003;49185;42.320;23.198;2023-12-20T02:53:53;2482.00;2482.00;2482.00
72031;PMS5003;49185;42.320;23.198;2023-12-20T02:56:18;2491.00;2491.00;2491.00
72031;PMS5003;49185;42.320;23.198;2023-12-20T02:58:44;2485.00;2485.00;2485.00
72031;PMS5003;49185;42.320;23.198;2023-12-20T03:01:09;2485.00;2485.00;2485.00
72031;PMS5003;49185;42.320;23.198;2023-12-20T03:03:34;2486.00;2486.00;2486.00
72031;PMS5003;49185;42.320;23.198;2023-12-20T03:06:00;2485.00;2485.00;2485.00
72031;PMS5003;49185;42.320;23.198;2023-12-20T03:08:25;2494.00;2494.00;2494.00
72031;PMS5003;49185;42.320;23.198;2023-12-20T03:10:51;2497.00;2497.00;2497.00
72031;PMS5003;49185;42.320;23.198;2023-12-20T03:13:16;2489.00;2489.00;2489.00
72031;PMS5003;49185;42.320;23.198;2023-12-20T03:15:42;2497.00;2497.00;2497.00
72031;PMS5003;49185;42.320;23.198;2023-12-20T03:18:07;2488.00;2488.00;2488.00
72031;PMS5003;49185;42.320;23.198;2023-12-20T03:20:32;2497.00;2497.00;2497.00
72031;PMS5003;49185;42.320;23.198;2023-12-20T03:22:58;2495.00;2495.00;2495.00
72031;PMS5003;49185;42.320;23.198;2023-12-20T03:25:23;2485.00;2485.00;2485.00
72031;PMS5003;49185;42.320;23.198;2023-12-20T03:27:49;2491.00;2491.00;2491.00
72031;PMS5003;49185;42.320;23.198;2023-12-20T03:30:14;2489.00;2489.00;2489.00
72031;PMS5003;49185;42.320;23.198;2023-12-20T03:32:40;2492.50;2492.50;2492.50
72031;PMS5003;49185;42.320;23.198;2023-12-20T03:35:05;2491.00;2491.00;2491.00
72031;PMS5003;49185;42.320;23.198;2023-12-20T03:37:31;2491.00;2491.00;2491.00
72031;PMS5003;49185;42.320;23.198;2023-12-20T03:39:56;2489.00;2489.00;2489.00
72031;PMS5003;49185;42.320;23.198;2023-12-20T03:42:22;2486.00;2486.00;2486.00
72031;PMS5003;49185;42.320;23.198;2023-12-20T03:44:48;2485.00;2485.00;2485.00
72031;PMS5003;49185;42.320;23.198;2023-12-20T03:47:13;2479.50;2479.50;2479.50
72031;PMS5003;49185;42.320;23.198;2023-12-20T03:49:39;2485.00;2485.00;2485.00
72031;PMS5003;49185;42.320;23.198;2023-12-20T03:52:05;2476.50;2476.50;2476.50
72031;PMS5003;49185;42.320;23.198;2023-12-20T03:54:31;2475.00;2475.00;2475.00
72031;PMS5003;49185;42.320;23.198;2023-12-20T03:56:56;2482.50;2482.50;2482.50
72031;PMS5003;49185;42.320;23.198;2023-12-20T03:59:22;2482.50;2482.50;2482.50
72031;PMS5003;49185;42.320;23.198;2023-12-20T04:01:47;2479.67;2479.67;2479.67
72031;PMS5003;49185;42.320;23.198;2023-12-20T04:04:13;2479.67;2479.67;2479.67
72031;PMS5003;49185;42.320;23.198;2023-12-20T04:06:39;2481.00;2481.00;2481.00
72031;PMS5003;49185;42.320;23.198;2023-12-20T04:09:05;2472.00;2472.00;2472.00
72031;PMS5003;49185;42.320;23.198;2023-12-20T04:11:31;2481.00;2481.00;2481.00
72031;PMS5003;49185;42.320;23.198;2023-12-20T04:13:56;2477.67;2477.67;2477.67
72031;PMS5003;49185;42.320;23.198;2023-12-20T04:16:22;2473.50;2473.50;2473.50
72031;PMS5003;49185;42.320;23.198;2023-12-20T04:18:47;2481.00;2481.00;2481.00
72031;PMS5003;49185;42.320;23.198;2023-12-20T04:21:13;2477.67;2477.67;2477.67
72031;PMS5003;49185;42.320;23.198;2023-12-20T04:23:38;2477.67;2477.67;2477.67
72031;PMS5003;49185;42.320;23.198;2023-12-20T04:26:04;2479.50;2479.50;2479.50
72031;PMS5003;49185;42.320;23.198;2023-12-20T04:28:30;2470.50;2470.50;2470.50
72031;PMS5003;49185;42.320;23.198;2023-12-20T04:30:56;2478.00;2478.00;2478.00
72031;PMS5003;49185;42.320;23.198;2023-12-20T04:33:21;2474.67;2474.67;2474.67
72031;PMS5003;49185;42.320;23.198;2023-12-20T04:35:47;2479.50;2479.50;2479.50
72031;PMS5003;49185;42.320;23.198;2023-12-20T04:38:13;2478.00;2478.00;2478.00
72031;PMS5003;49185;42.320;23.198;2023-12-20T04:40:38;2473.67;2473.67;2473.67
72031;PMS5003;49185;42.320;23.198;2023-12-20T04:43:04;2465.67;2465.67;2465.67
72031;PMS5003;49185;42.320;23.198;2023-12-20T04:45:29;2465.67;2465.67;2465.67
72031;PMS5003;49185;42.320;23.198;2023-12-20T04:47:55;2471.67;2471.67;2471.67
72031;PMS5003;49185;42.320;23.198;2023-12-20T04:50:21;2471.67;2471.67;2471.67
72031;PMS5003;49185;42.320;23.198;2023-12-20T04:52:46;2472.67;2472.67;2472.67
72031;PMS5003;49185;42.320;23.198;2023-12-20T04:55:12;2467.50;2467.50;2467.50
72031;PMS5003;49185;42.320;23.198;2023-12-20T04:57:37;2466.00;2466.00;2466.00
72031;PMS5003;49185;42.320;23.198;2023-12-20T05:00:03;2470.67;2470.67;2470.67
72031;PMS5003;49185;42.320;23.198;2023-12-20T05:02:29;2476.50;2476.50;2476.50
72031;PMS5003;49185;42.320;23.198;2023-12-20T05:04:54;2478.00;2478.00;2478.00
72031;PMS5003;49185;42.320;23.198;2023-12-20T05:07:20;2470.50;2470.50;2470.50
72031;PMS5003;49185;42.320;23.198;2023-12-20T05:09:45;2465.67;2465.67;2465.67
72031;PMS5003;49185;42.320;23.198;2023-12-20T05:12:11;2464.67;2464.67;2464.67
72031;PMS5003;49185;42.320;23.198;2023-12-20T05:14:36;2471.67;2471.67;2471.67
72031;PMS5003;49185;42.320;23.198;2023-12-20T05:17:02;2468.67;2468.67;2468.67
72031;PMS5003;49185;42.320;23.198;2023-12-20T05:19:27;2462.00;2462.00;2462.00
72031;PMS5003;49185;42.320;23.198;2023-12-20T05:21:52;2460.00;2460.00;2460.00
72031;PMS5003;49185;42.320;23.198;2023-12-20T05:24:18;2465.67;2465.67;2465.67
72031;PMS5003;49185;42.320;23.198;2023-12-20T05:26:43;2457.00;2457.00;2457.00
72031;PMS5003;49185;42.320;23.198;2023-12-20T05:29:09;2464.67;2464.67;2464.67
72031;PMS5003;49185;42.320;23.198;2023-12-20T05:31:34;2465.67;2465.67;2465.67
72031;PMS5003;49185;42.320;23.198;2023-12-20T05:33:59;2465.67;2465.67;2465.67
72031;PMS5003;49185;42.320;23.198;2023-12-20T05:36:25;2459.00;2459.00;2459.00
72031;PMS5003;49185;42.320;23.198;2023-12-20T05:38:51;2469.00;2469.00;2469.00
72031;PMS5003;49185;42.320;23.198;2023-12-20T05:41:16;2459.00;2459.00;2459.00
72031;PMS5003;49185;42.320;23.198;2023-12-20T05:43:42;2460.50;2460.50;2460.50
72031;PMS5003;49185;42.320;23.198;2023-12-20T05:46:09;2460.00;2460.00;2460.00
72031;PMS5003;49185;42.320;23.198;2023-12-20T05:48:35;2470.50;2470.50;2470.50
72031;PMS5003;49185;42.320;23.198;2023-12-20T05:51:01;2459.00;2459.00;2459.00
72031;PMS5003;49185;42.320;23.198;2023-12-20T05:53:26;2459.00;2459.00;2459.00
72031;PMS5003;49185;42.320;23.198;2023-12-20T05:55:52;2468.67;2468.67;2468.67
72031;PMS5003;49185;42.320;23.198;2023-12-20T05:58:17;2473.50;2473.50;2473.50
72031;PMS5003;49185;42.320;23.198;2023-12-20T06:00:43;2471.67;2471.67;2471.67
72031;PMS5003;49185;42.320;23.198;2023-12-20T06:03:08;2462.67;2462.67;2462.67
72031;PMS5003;49185;42.320;23.198;2023-12-20T06:05:33;2471.67;2471.67;2471.67
72031;PMS5003;49185;42.320;23.198;2023-12-20T06:07:59;2460.00;2460.00;2460.00
72031;PMS5003;49185;42.320;23.198;2023-12-20T06:10:24;2460.00;2460.00;2460.00
72031;PMS5003;49185;42.320;23.198;2023-12-20T06:12:50;2459.00;2459.00;2459.00
72031;PMS5003;49185;42.320;23.198;2023-12-20T06:15:15;2459.00;2459.00;2459.00
72031;PMS5003;49185;42.320;23.198;2023-12-20T06:17:40;2460.00;2460.00;2460.00
72031;PMS5003;49185;42.320;23.198;2023-12-20T06:20:06;2460.00;2460.00;2460.00
72031;PMS5003;49185;42.320;23.198;2023-12-20T06:22:32;2463.50;2463.50;2463.50
72031;PMS5003;49185;42.320;23.198;2023-12-20T06:24:59;2465.00;2465.00;2465.00
72031;PMS5003;49185;42.320;23.198;2023-12-20T06:27:24;2462.67;2462.67;2462.67
72031;PMS5003;49185;42.320;23.198;2023-12-20T06:29:50;2462.67;2462.67;2462.67
72031;PMS5003;49185;42.320;23.198;2023-12-20T06:32:15;2462.67;2462.67;2462.67
72031;PMS5003;49185;42.320;23.198;2023-12-20T06:34:40;2462.00;2462.00;2462.00
72031;PMS5003;49185;42.320;23.198;2023-12-20T06:37:06;2468.67;2468.67;2468.67
72031;PMS5003;49185;42.320;23.198;2023-12-20T06:39:31;2470.67;2470.67;2470.67
72031;PMS5003;49185;42.320;23.198;2023-12-20T06:41:57;2462.00;2462.00;2462.00
72031;PMS5003;49185;42.320;23.198;2023-12-20T06:44:22;2471.67;2471.67;2471.67
72031;PMS5003;49185;42.320;23.198;2023-12-20T06:46:47;2465.67;2465.67;2465.67
72031;PMS5003;49185;42.320;23.198;2023-12-20T06:49:13;2473.67;2473.67;2473.67
72031;PMS5003;49185;42.320;23.198;2023-12-20T06:51:38;2471.67;2471.67;2471.67
72031;PMS5003;49185;42.320;23.198;2023-12-20T06:54:03;2471.67;2471.67;2471.67
72031;PMS5003;49185;42.320;23.198;2023-12-20T06:56:29;2462.67;2462.67;2462.67
72031;PMS5003;49185;42.320;23.198;2023-12-20T06:58:55;2463.50;2463.50;2463.50
72031;PMS5003;49185;42.320;23.198;2023-12-20T07:01:20;2460.00;2460.00;2460.00
72031;PMS5003;49185;42.320;23.198;2023-12-20T07:03:46;2465.67;2465.67;2465.67
72031;PMS5003;49185;42.320;23.198;2023-12-20T07:06:11;2465.67;2465.67;2465.67
72031;PMS5003;49185;42.320;23.198;2023-12-20T07:08:37;2460.00;2460.00;2460.00
72031;PMS5003;49185;42.320;23.198;2023-12-20T07:11:02;2471.67;2471.67;2471.67
72031;PMS5003;49185;42.320;23.198;2023-12-20T07:13:28;2475.00;2475.00;2475.00
72031;PMS5003;49185;42.320;23.198;2023-12-20T07:15:53;2465.67;2465.67;2465.67
72031;PMS5003;49185;42.320;23.198;2023-12-20T07:18:18;2474.67;2474.67;2474.67
72031;PMS5003;49185;42.320;23.198;2023-12-20T07:20:44;2476.67;2476.67;2476.67
72031;PMS5003;49185;42.320;23.198;2023-12-20T07:23:09;2476.67;2476.67;2476.67
72031;PMS5003;49185;42.320;23.198;2023-12-20T07:25:34;2467.67;2467.67;2467.67
72031;PMS5003;49185;42.320;23.198;2023-12-20T07:28:00;2468.67;2468.67;2468.67
72031;PMS5003;49185;42.320;23.198;2023-12-20T07:30:25;2476.67;2476.67;2476.67
72031;PMS5003;49185;42.320;23.198;2023-12-20T07:32:51;2476.50;2476.50;2476.50
72031;PMS5003;49185;42.320;23.198;2023-12-20T07:35:17;2479.50;2479.50;2479.50
72031;PMS5003;49185;42.320;23.198;2023-12-20T07:37:42;2472.00;2472.00;2472.00
72031;PMS5003;49185;42.320;23.198;2023-12-20T07:40:08;2476.67;2476.67;2476.67
72031;PMS5003;49185;42.320;23.198;2023-12-20T07:42:34;2479.67;2479.67;2479.67
72031;PMS5003;49185;42.320;23.198;2023-12-20T07:44:59;2476.50;2476.50;2476.50
72031;PMS5003;49185;42.320;23.198;2023-12-20T07:47:25;2485.00;2485.00;2485.00
72031;PMS5003;49185;42.320;23.198;2023-12-20T07:49:51;2481.00;2481.00;2481.00
72031;PMS5003;49185;42.320;23.198;2023-12-20T07:52:19;2482.50;2482.50;2482.50
72031;PMS5003;49185;42.320;23.198;2023-12-20T07:54:45;2479.50;2479.50;2479.50
72031;PMS5003;49185;42.320;23.198;2023-12-20T07:57:11;2489.50;2489.50;2489.50
72031;PMS5003;49185;42.320;23.198;2023-12-20T07:59:37;2481.00;2481.00;2481.00
72031;PMS5003;49185;42.320;23.198;2023-12-20T08:02:03;2479.50;2479.50;2479.50
72031;PMS5003;49185;42.320;23.198;2023-12-20T08:04:28;2480.67;2480.67;2480.67
72031;PMS5003;49185;42.320;23.198;2023-12-20T08:06:54;2486.50;2486.50;2486.50
72031;PMS5003;49185;42.320;23.198;2023-12-20T08:09:20;2488.00;2488.00;2488.00
72031;PMS5003;49185;42.320;23.198;2023-12-20T08:11:46;2498.50;2498.50;2498.50
72031;PMS5003;49185;42.320;23.198;2023-12-20T08:14:12;2504.50;2504.50;2504.50
72031;PMS5003;49185;42.320;23.198;2023-12-20T08:16:38;2504.00;2504.00;2504.00
72031;PMS5003;49185;42.320;23.198;2023-12-20T08:19:03;2503.00;2503.00;2503.00
72031;PMS5003;49185;42.320;23.198;2023-12-20T08:21:29;2506.00;2506.00;2506.00
72031;PMS5003;49185;42.320;23.198;2023-12-20T08:23:54;2519.33;2519.33;2519.33
72031;PMS5003;49185;42.320;23.198;2023-12-20T08:26:20;2526.00;2526.00;2526.00
72031;PMS5003;49185;42.320;23.198;2023-12-20T08:28:46;2529.00;2529.00;2529.00
72031;PMS5003;49185;42.320;23.198;2023-12-20T08:31:15;2532.00;2532.00;2532.00
72031;PMS5003;49185;42.320;23.198;2023-12-20T08:33:43;2530.50;2530.50;2530.50
72031;PMS5003;49185;42.320;23.198;2023-12-20T08:36:10;2534.00;2534.00;2534.00
72031;PMS5003;49185;42.320;23.198;2023-12-20T08:38:35;2535.50;2535.50;2535.50
72031;PMS5003;49185;42.320;23.198;2023-12-20T08:41:01;2537.00;2537.00;2537.00
72031;PMS5003;49185;42.320;23.198;2023-12-20T08:43:28;2541.50;2541.50;2541.50
72031;PMS5003;49185;42.320;23.198;2023-12-20T08:45:54;2535.50;2535.50;2535.50
72031;PMS5003;49185;42.320;23.198;2023-12-20T08:48:19;2544.33;2544.33;2544.33
72031;PMS5003;49185;42.320;23.198;2023-12-20T08:50:45;2551.00;2551.00;2551.00
72031;PMS5003;49185;42.320;23.198;2023-12-20T08:53:10;2540.00;2540.00;2540.00
72031;PMS5003;49185;42.320;23.198;2023-12-20T08:55:36;2548.00;2548.00;2548.00
72031;PMS5003;49185;42.320;23.198;2023-12-20T08:58:02;2544.50;2544.50;2544.50
72031;PMS5003;49185;42.320;23.198;2023-12-20T09:00:27;2561.50;2561.50;2561.50
72031;PMS5003;49185;42.320;23.198;2023-12-20T09:02:54;2571.50;2571.50;2571.50
72031;PMS5003;49185;42.320;23.198;2023-12-20T09:05:19;2570.00;2570.00;2570.00
72031;PMS5003;49185;42.320;23.198;2023-12-20T09:07:45;2589.00;2589.00;2589.00
72031;PMS5003;49185;42.320;23.198;2023-12-20T09:10:11;2578.67;2578.67;2578.67
72031;PMS5003;49185;42.320;23.198;2023-12-20T09:12:36;2590.50;2590.50;2590.50
72031;PMS5003;49185;42.320;23.198;2023-12-20T09:15:02;2597.00;2597.00;2597.00
72031;PMS5003;49185;42.320;23.198;2023-12-20T09:17:28;2594.67;2594.67;2594.67
72031;PMS5003;49185;42.320;23.198;2023-12-20T09:19:54;2613.00;2613.00;2613.00
72031;PMS5003;49185;42.320;23.198;2023-12-20T09:22:19;2606.50;2606.50;2606.50
72031;PMS5003;49185;42.320;23.198;2023-12-20T09:24:45;2617.67;2617.67;2617.67
72031;PMS5003;49185;42.320;23.198;2023-12-20T09:27:10;2609.67;2609.67;2609.67
72031;PMS5003;49185;42.320;23.198;2023-12-20T09:29:36;2620.67;2620.67;2620.67
72031;PMS5003;49185;42.320;23.198;2023-12-20T09:32:02;2613.33;2613.33;2613.33
72031;PMS5003;49185;42.320;23.198;2023-12-20T09:34:27;2633.00;2633.00;2633.00
72031;PMS5003;49185;42.320;23.198;2023-12-20T09:36:53;2634.00;2634.00;2634.00
72031;PMS5003;49185;42.320;23.198;2023-12-20T09:39:19;2639.67;2639.67;2639.67
72031;PMS5003;49185;42.320;23.198;2023-12-20T09:41:45;2633.00;2633.00;2633.00
72031;PMS5003;49185;42.320;23.198;2023-12-20T09:44:15;2648.00;2648.00;2648.00
72031;PMS5003;49185;42.320;23.198;2023-12-20T09:46:45;2651.50;2651.50;2651.50
72031;PMS5003;49185;42.320;23.198;2023-12-20T09:49:14;2658.00;2658.00;2658.00
72031;PMS5003;49185;42.320;23.198;2023-12-20T09:51:42;2673.50;2673.50;2673.50
72031;PMS5003;49185;42.320;23.198;2023-12-20T09:54:08;2663.50;2663.50;2663.50
72031;PMS5003;49185;42.320;23.198;2023-12-20T09:56:34;2684.00;2684.00;2684.00
72031;PMS5003;49185;42.320;23.198;2023-12-20T09:59:00;2670.00;2670.00;2670.00
72031;PMS5003;49185;42.320;23.198;2023-12-20T10:01:25;2670.00;2670.00;2670.00
72031;PMS5003;49185;42.320;23.198;2023-12-20T10:03:54;2672.00;2672.00;2672.00
72031;PMS5003;49185;42.320;23.198;2023-12-20T10:06:20;2655.00;2655.00;2655.00
72031;PMS5003;49185;42.320;23.198;2023-12-20T10:08:46;2656.50;2656.50;2656.50
72031;PMS5003;49185;42.320;23.198;2023-12-20T10:11:12;2647.67;2647.67;2647.67
72031;PMS5003;49185;42.320;23.198;2023-12-20T10:13:40;2661.00;2661.00;2661.00
72031;PMS5003;49185;42.320;23.198;2023-12-20T10:16:06;2656.50;2656.50;2656.50
72031;PMS5003;49185;42.320;23.198;2023-12-20T10:18:32;2672.00;2672.00;2672.00
72031;PMS5003;49185;42.320;23.198;2023-12-20T10:20:57;2663.67;2663.67;2663.67
72031;PMS5003;49185;42.320;23.198;2023-12-20T10:23:23;2651.00;2651.00;2651.00
72031;PMS5003;49185;42.320;23.198;2023-12-20T10:25:55;2668.50;2668.50;2668.50
72031;PMS5003;49185;42.320;23.198;2023-12-20T10:28:24;2655.00;2655.00;2655.00
72031;PMS5003;49185;42.320;23.198;2023-12-20T10:30:50;2654.00;2654.00;2654.00
72031;PMS5003;49185;42.320;23.198;2023-12-20T10:33:23;2660.00;2660.00;2660.00
72031;PMS5003;49185;42.320;23.198;2023-12-20T10:35:50;2663.50;2663.50;2663.50
72031;PMS5003;49185;42.320;23.198;2023-12-20T10:38:15;2653.00;2653.00;2653.00
72031;PMS5003;49185;42.320;23.198;2023-12-20T10:40:41;2660.00;2660.00;2660.00
72031;PMS5003;49185;42.320;23.198;2023-12-20T10:43:06;2654.00;2654.00;2654.00
72031;PMS5003;49185;42.320;23.198;2023-12-20T10:45:34;2655.00;2655.00;2655.00
72031;PMS5003;49185;42.320;23.198;2023-12-20T10:47:59;2654.00;2654.00;2654.00
72031;PMS5003;49185;42.320;23.198;2023-12-20T10:50:27;2677.00;2677.00;2677.00
72031;PMS5003;49185;42.320;23.198;2023-12-20T10:52:53;2679.00;2679.00;2679.00
72031;PMS5003;49185;42.320;23.198;2023-12-20T10:55:19;2668.50;2668.50;2668.50
72031;PMS5003;49185;42.320;23.198;2023-12-20T10:57:45;2673.67;2673.67;2673.67
72031;PMS5003;49185;42.320;23.198;2023-12-20T11:00:14;2672.00;2672.00;2672.00
72031;PMS5003;49185;42.320;23.198;2023-12-20T11:02:41;2673.50;2673.50;2673.50
72031;PMS5003;49185;42.320;23.198;2023-12-20T11:07:47;2672.00;2672.00;2672.00
72031;PMS5003;49185;42.320;23.198;2023-12-20T11:12:46;2660.00;2660.00;2660.00
72031;PMS5003;49185;42.320;23.198;2023-12-20T11:15:15;2662.00;2662.00;2662.00
72031;PMS5003;49185;42.320;23.198;2023-12-20T11:17:41;2668.50;2668.50;2668.50
72031;PMS5003;49185;42.320;23.198;2023-12-20T11:20:09;2662.00;2662.00;2662.00
72031;PMS5003;49185;42.320;23.198;2023-12-20T11:22:35;2680.50;2680.50;2680.50
72031;PMS5003;49185;42.320;23.198;2023-12-20T11:25:04;2668.00;2668.00;2668.00
72031;PMS5003;49185;42.320;23.198;2023-12-20T11:27:34;2672.00;2672.00;2672.00
72031;PMS5003;49185;42.320;23.198;2023-12-20T11:30:02;2675.00;2675.00;2675.00
72031;PMS5003;49185;42.320;23.198;2023-12-20T11:32:29;2687.50;2687.50;2687.50
72031;PMS5003;49185;42.320;23.198;2023-12-20T11:34:55;2689.00;2689.00;2689.00
72031;PMS5003;49185;42.320;23.198;2023-12-20T11:37:25;2682.00;2682.00;2682.00
72031;PMS5003;49185;42.320;23.198;2023-12-20T11:40:07;2694.50;2694.50;2694.50
72031;PMS5003;49185;42.320;23.198;2023-12-20T11:42:33;2686.00;2686.00;2686.00
72031;PMS5003;49185;42.320;23.198;2023-12-20T11:45:09;2697.50;2697.50;2697.50
72031;PMS5003;49185;42.320;23.198;2023-12-20T11:47:42;2687.50;2687.50;2687.50
72031;PMS5003;49185;42.320;23.198;2023-12-20T11:50:10;2690.50;2690.50;2690.50
72031;PMS5003;49185;42.320;23.198;2023-12-20T11:52:35;2695.33;2695.33;2695.33
72031;PMS5003;49185;42.320;23.198;2023-12-20T11:55:01;2687.00;2687.00;2687.00
72031;PMS5003;49185;42.320;23.198;2023-12-20T11:57:26;2691.00;2691.00;2691.00
72031;PMS5003;49185;42.320;23.198;2023-12-20T11:59:52;2691.00;2691.00;2691.00
72031;PMS5003;49185;42.320;23.198;2023-12-20T12:02:17;2706.33;2706.33;2706.33
72031;PMS5003;49185;42.320;23.198;2023-12-20T12:04:43;2698.00;2698.00;2698.00
72031;PMS5003;49185;42.320;23.198;2023-12-20T12:07:08;2720.33;2720.33;2720.33
72031;PMS5003;49185;42.320;23.198;2023-12-20T12:09:34;2735.67;2735.67;2735.67
72031;PMS5003;49185;42.320;23.198;2023-12-20T12:11:59;2757.00;2757.00;2757.00
72031;PMS5003;49185;42.320;23.198;2023-12-20T12:14:25;2741.67;2741.67;2741.67
72031;PMS5003;49185;42.320;23.198;2023-12-20T12:16:50;2767.33;2767.33;2767.33
72031;PMS5003;49185;42.320;23.198;2023-12-20T12:19:22;2781.67;2781.67;2781.67
72031;PMS5003;49185;42.320;23.198;2023-12-20T12:22:11;2786.00;2786.00;2786.00
72031;PMS5003;49185;42.320;23.198;2023-12-20T12:24:42;2783.00;2783.00;2783.00
72031;PMS5003;49185;42.320;23.198;2023-12-20T12:27:08;2790.00;2790.00;2790.00
72031;PMS5003;49185;42.320;23.198;2023-12-20T12:29:34;2784.50;2784.50;2784.50